Time;durP1;ratioP1;P1;durP2;ratioP2;P2;SDS_P1;SDS_P2;PMS_P1;PMS_P2;Temp;Humidity;BMP_temperature;BMP_pressure;BME280_temperature;BME280_humidity;BME280_pressure;Samples;Min_cycle;Max_cycle;Signal;HPM_P1;HPM_P2
2023/03/13 00:01:33;;;;;;;21.43;9.07;;;2.10;99.90;;;;;;4790573;29;20660;-73
2023/03/13 00:04:00;;;;;;;22.20;9.13;;;2.20;99.90;;;;;;4790389;29;20199;-73
2023/03/13 00:06:31;;;;;;;20.70;8.77;;;2.10;99.90;;;;;;4790390;29;20215;-72
2023/03/13 00:08:59;;;;;;;19.83;8.73;;;2.00;99.90;;;;;;4790331;29;20209;-73
2023/03/13 00:11:26;;;;;;;17.90;8.27;;;2.10;99.90;;;;;;4806551;29;20230;-74
2023/03/13 00:13:58;;;;;;;20.27;8.07;;;2.20;99.90;;;;;;4790301;29;20211;-73
2023/03/13 00:16:26;;;;;;;19.10;8.53;;;2.20;99.90;;;;;;4790438;29;20211;-73
2023/03/13 00:18:54;;;;;;;18.27;8.50;;;2.20;99.90;;;;;;4790418;29;20215;-73
2023/03/13 00:21:24;;;;;;;21.13;7.97;;;2.10;99.90;;;;;;4790188;29;20753;-74
2023/03/13 00:23:52;;;;;;;19.27;8.63;;;2.20;99.90;;;;;;4806266;29;20206;-74
2023/03/13 00:26:21;;;;;;;17.80;8.27;;;2.20;99.90;;;;;;4789991;29;20211;-73
2023/03/13 00:28:49;;;;;;;16.17;7.80;;;2.20;99.90;;;;;;4790195;29;20209;-72
2023/03/13 00:31:20;;;;;;;15.87;7.93;;;2.30;99.90;;;;;;4789743;29;20671;-73
2023/03/13 00:33:52;;;;;;;15.33;7.50;;;2.30;99.90;;;;;;4775217;29;20214;-72
2023/03/13 00:36:25;;;;;;;14.33;6.53;;;2.40;99.90;;;;;;4790032;29;20295;-72
2023/03/13 00:38:55;;;;;;;11.90;6.67;;;2.40;99.90;;;;;;4789779;29;20252;-72
2023/03/13 00:41:28;;;;;;;13.10;5.90;;;2.40;99.90;;;;;;4806093;29;20207;-73
2023/03/13 00:44:01;;;;;;;16.00;6.50;;;2.50;99.90;;;;;;4789736;29;20208;-73
2023/03/13 00:46:29;;;;;;;15.77;6.80;;;2.50;99.90;;;;;;4789768;29;20211;-73
2023/03/13 00:48:57;;;;;;;14.70;6.60;;;2.60;99.90;;;;;;4789796;29;20201;-72
2023/03/13 00:51:25;;;;;;;14.47;6.37;;;2.60;99.90;;;;;;4806082;29;20223;-73
2023/03/13 00:53:54;;;;;;;13.63;6.27;;;2.60;99.90;;;;;;4789607;29;20209;-73
2023/03/13 00:56:22;;;;;;;13.17;6.17;;;2.70;99.90;;;;;;4789252;29;20244;-72
2023/03/13 00:58:50;;;;;;;12.93;6.27;;;2.80;99.90;;;;;;4774913;29;20230;-74
2023/03/13 01:01:25;;;;;;;12.10;6.00;;;2.90;99.90;;;;;;4789844;29;20226;-74
2023/03/13 01:03:55;;;;;;;12.10;5.80;;;2.80;99.90;;;;;;4789719;29;20328;-74
2023/03/13 01:06:25;;;;;;;14.23;6.10;;;2.90;99.90;;;;;;4805750;29;20211;-73
2023/03/13 01:08:55;;;;;;;12.43;6.23;;;2.90;99.90;;;;;;4789368;29;20264;-75
2023/03/13 01:11:27;;;;;;;13.60;6.67;;;2.90;99.90;;;;;;4789527;29;20242;-76
2023/03/13 01:13:56;;;;;;;15.00;6.30;;;2.90;99.90;;;;;;4789277;29;20243;-73
2023/03/13 01:16:24;;;;;;;14.67;6.03;;;3.00;99.90;;;;;;4789096;29;20209;-75
2023/03/13 01:18:53;;;;;;;12.03;6.30;;;3.10;99.90;;;;;;4789496;29;20650;-74
2023/03/13 01:21:22;;;;;;;11.63;5.87;;;3.00;99.90;;;;;;4789097;29;20200;-74
2023/03/13 01:23:51;;;;;;;12.03;6.00;;;3.00;99.90;;;;;;4789358;29;20271;-74
2023/03/13 01:26:25;;;;;;;10.73;6.13;;;3.10;99.90;;;;;;4788996;29;20220;-74
2023/03/13 01:28:52;;;;;;;11.07;5.93;;;3.10;99.90;;;;;;4789112;29;20204;-75
2023/03/13 01:31:25;;;;;;;10.53;6.00;;;3.10;99.90;;;;;;4789188;29;20227;-75
2023/03/13 01:33:58;;;;;;;11.10;5.90;;;3.10;99.90;;;;;;4789186;29;20325;-73
2023/03/13 01:36:26;;;;;;;13.03;6.07;;;3.10;99.90;;;;;;4789053;29;20706;-73
2023/03/13 01:38:55;;;;;;;14.07;6.57;;;2.90;99.90;;;;;;4788989;29;20737;-73
2023/03/13 01:41:23;;;;;;;15.90;6.50;;;3.00;99.90;;;;;;4789338;29;20203;-72
2023/03/13 01:43:54;;;;;;;12.17;5.97;;;3.00;99.90;;;;;;4805404;29;20588;-73
2023/03/13 01:46:26;;;;;;;12.40;6.23;;;3.00;99.90;;;;;;4788916;29;20197;-74
2023/03/13 01:49:09;;;;;;;9.83;5.50;;;3.00;99.90;;;;;;4788935;29;20204;-73
2023/03/13 01:52:08;;;;;;;12.53;6.10;;;3.00;99.90;;;;;;4807364;29;20234;-74
2023/03/13 01:54:41;;;;;;;13.33;6.07;;;3.00;99.90;;;;;;4792789;29;20561;-75
2023/03/13 01:57:26;;;;;;;12.43;5.93;;;2.90;99.90;;;;;;4792440;29;20228;-75
2023/03/13 02:00:03;;;;;;;11.73;6.10;;;3.00;99.90;;;;;;4808968;29;20306;-71
2023/03/13 02:02:30;;;;;;;13.57;6.47;;;3.00;99.90;;;;;;4792569;29;20208;-75
2023/03/13 02:05:02;;;;;;;14.20;6.83;;;2.90;99.90;;;;;;4792316;29;20208;-74
2023/03/13 02:08:05;;;;;;;12.97;6.43;;;3.00;99.90;;;;;;4792435;29;20216;-73
2023/03/13 02:10:37;;;;;;;14.27;6.80;;;3.00;99.90;;;;;;4792434;29;20203;-71
2023/03/13 02:13:04;;;;;;;13.70;6.50;;;2.90;99.90;;;;;;4792423;29;20231;-75
2023/03/13 02:15:32;;;;;;;14.87;6.57;;;2.80;99.90;;;;;;4808559;29;20203;-75
2023/03/13 02:17:59;;;;;;;12.83;7.00;;;2.80;99.90;;;;;;4792634;29;20283;-77
2023/03/13 02:20:26;;;;;;;13.13;7.10;;;2.70;99.90;;;;;;4808496;29;20208;-75
2023/03/13 02:22:56;;;;;;;13.00;6.80;;;2.80;99.90;;;;;;4792211;29;20219;-76
2023/03/13 02:25:23;;;;;;;15.13;7.40;;;2.80;99.90;;;;;;4792221;29;20215;-75
2023/03/13 02:27:59;;;;;;;14.97;7.27;;;2.80;99.90;;;;;;4808740;29;20195;-76
2023/03/13 02:30:27;;;;;;;13.77;6.87;;;2.70;99.90;;;;;;4808275;29;20229;-72
2023/03/13 02:32:54;;;;;;;15.53;6.97;;;2.80;99.90;;;;;;4791835;29;20227;-72
2023/03/13 02:35:26;;;;;;;15.50;6.77;;;2.80;99.90;;;;;;4792003;29;20480;-72
2023/03/13 02:37:58;;;;;;;11.93;6.63;;;2.80;99.90;;;;;;4808314;29;20197;-73
2023/03/13 02:40:29;;;;;;;16.27;7.30;;;2.80;99.90;;;;;;4791970;29;20199;-76
2023/03/13 02:43:01;;;;;;;14.40;6.77;;;2.80;99.90;;;;;;4791844;29;20211;-71
2023/03/13 02:45:28;;;;;;;16.10;7.43;;;2.70;99.90;;;;;;4791657;29;20211;-72
2023/03/13 02:47:55;;;;;;;14.47;6.80;;;2.80;99.90;;;;;;4791838;29;20206;-72
2023/03/13 02:50:23;;;;;;;18.13;7.73;;;2.80;99.90;;;;;;4791970;29;20207;-72
2023/03/13 02:53:01;;;;;;;14.17;7.30;;;2.80;99.90;;;;;;4808287;29;20220;-73
2023/03/13 02:55:40;;;;;;;14.47;6.97;;;2.80;99.90;;;;;;4791310;29;20206;-72
2023/03/13 02:58:07;;;;;;;13.13;7.20;;;2.80;99.90;;;;;;4791952;29;20211;-72
2023/03/13 03:00:35;;;;;;;20.33;7.33;;;2.80;99.90;;;;;;4807920;29;20529;-72
2023/03/13 03:03:02;;;;;;;15.17;7.03;;;2.70;99.90;;;;;;4806546;29;20214;-71
2023/03/13 03:05:29;;;;;;;18.73;7.70;;;2.70;99.90;;;;;;4807523;29;20296;-73
2023/03/13 03:07:56;;;;;;;14.43;7.10;;;2.60;99.90;;;;;;4807779;29;20199;-72
2023/03/13 03:10:23;;;;;;;18.27;7.57;;;2.60;99.90;;;;;;4791455;29;20214;-73
2023/03/13 03:12:49;;;;;;;16.50;7.33;;;2.60;99.90;;;;;;4791287;29;20224;-71
2023/03/13 03:15:16;;;;;;;18.17;7.83;;;2.60;99.90;;;;;;4791301;29;20627;-73
2023/03/13 03:17:43;;;;;;;18.37;7.53;;;2.60;99.90;;;;;;4776465;29;20217;-73
2023/03/13 03:20:10;;;;;;;13.57;6.73;;;2.60;99.90;;;;;;4791281;29;20200;-76
2023/03/13 03:22:39;;;;;;;15.50;7.40;;;2.60;99.90;;;;;;4791429;29;20208;-74
2023/03/13 03:25:08;;;;;;;14.17;7.00;;;2.60;99.90;;;;;;4807376;29;20192;-75
2023/03/13 03:27:35;;;;;;;15.60;7.27;;;2.70;99.90;;;;;;4791351;29;20211;-75
2023/03/13 03:30:03;;;;;;;14.33;6.90;;;2.70;99.90;;;;;;4791126;29;20323;-74
2023/03/13 03:32:30;;;;;;;12.97;6.93;;;2.70;99.90;;;;;;4791191;29;20223;-75
2023/03/13 03:34:57;;;;;;;15.50;7.37;;;2.70;99.90;;;;;;4790795;29;20203;-75
2023/03/13 03:37:24;;;;;;;17.43;7.33;;;2.70;99.90;;;;;;4791213;29;20199;-76
2023/03/13 03:39:51;;;;;;;16.23;7.93;;;2.70;99.90;;;;;;4790740;29;20233;-75
2023/03/13 03:42:17;;;;;;;15.37;6.97;;;2.60;99.90;;;;;;4790826;29;20222;-76
2023/03/13 03:44:44;;;;;;;13.63;7.00;;;2.70;99.90;;;;;;4807059;29;20570;-76
2023/03/13 03:47:12;;;;;;;14.57;7.07;;;2.80;99.90;;;;;;4790824;29;20213;-75
2023/03/13 03:49:39;;;;;;;13.87;7.20;;;2.80;99.90;;;;;;4790836;29;20200;-75
2023/03/13 03:52:06;;;;;;;15.07;6.97;;;2.80;99.90;;;;;;4807357;29;20240;-76
2023/03/13 03:54:33;;;;;;;14.80;6.97;;;2.80;99.90;;;;;;4790444;29;20215;-75
2023/03/13 03:57:00;;;;;;;16.37;7.23;;;2.70;99.90;;;;;;4790283;29;20227;-76
2023/03/13 03:59:27;;;;;;;13.53;6.60;;;2.70;99.90;;;;;;4791057;29;20212;-76
2023/03/13 04:01:54;;;;;;;15.57;7.03;;;2.70;99.90;;;;;;4790550;29;20208;-76
2023/03/13 04:04:22;;;;;;;14.27;7.13;;;2.70;99.90;;;;;;4790199;29;20279;-76
2023/03/13 04:06:49;;;;;;;15.47;6.70;;;2.70;99.90;;;;;;4790275;29;20208;-75
2023/03/13 04:09:16;;;;;;;15.77;7.00;;;2.70;99.90;;;;;;4806965;29;20196;-73
2023/03/13 04:11:43;;;;;;;15.20;6.83;;;2.60;99.90;;;;;;4790677;29;20199;-75
2023/03/13 04:14:09;;;;;;;16.33;7.13;;;2.60;99.90;;;;;;4789991;29;20205;-76
2023/03/13 04:16:36;;;;;;;14.63;6.53;;;2.60;99.90;;;;;;4790451;29;20594;-76
2023/03/13 04:19:03;;;;;;;14.27;7.20;;;2.60;99.90;;;;;;4775506;29;20241;-75
2023/03/13 04:21:31;;;;;;;14.47;6.80;;;2.60;99.90;;;;;;4790068;29;20211;-75
2023/03/13 04:23:58;;;;;;;13.50;6.70;;;2.70;99.90;;;;;;4790091;29;20222;-74
2023/03/13 04:26:24;;;;;;;13.70;6.63;;;2.80;99.90;;;;;;4789982;29;20214;-75
2023/03/13 04:28:51;;;;;;;14.13;6.83;;;2.80;99.90;;;;;;4789976;29;20204;-74
2023/03/13 04:31:18;;;;;;;14.63;7.70;;;2.70;99.90;;;;;;4790100;29;20236;-77
2023/03/13 04:33:45;;;;;;;13.67;7.60;;;2.60;99.90;;;;;;4789942;29;20235;-75
2023/03/13 04:36:12;;;;;;;14.53;7.83;;;2.60;99.90;;;;;;4789994;29;20203;-75
2023/03/13 04:38:39;;;;;;;15.30;7.73;;;2.60;99.90;;;;;;4789858;29;20208;-74
2023/03/13 04:41:06;;;;;;;14.10;7.90;;;2.50;99.90;;;;;;4805976;29;20250;-75
2023/03/13 04:43:32;;;;;;;14.50;8.20;;;2.50;99.90;;;;;;4790027;29;20581;-75
2023/03/13 04:45:59;;;;;;;14.97;8.13;;;2.50;99.90;;;;;;4789651;29;20200;-75
2023/03/13 04:48:26;;;;;;;16.67;8.73;;;2.40;99.90;;;;;;4805895;29;20279;-72
2023/03/13 04:50:53;;;;;;;16.70;8.07;;;2.50;99.90;;;;;;4789796;29;20215;-73
2023/03/13 04:53:20;;;;;;;20.73;8.90;;;2.40;99.90;;;;;;4805893;29;20717;-72
2023/03/13 04:55:48;;;;;;;15.43;8.20;;;2.50;99.90;;;;;;4789218;29;20226;-75
2023/03/13 04:58:15;;;;;;;20.47;9.03;;;2.40;99.90;;;;;;4805801;29;20561;-73
2023/03/13 05:00:42;;;;;;;17.90;8.63;;;2.40;99.90;;;;;;4806002;29;20199;-74
2023/03/13 05:03:09;;;;;;;16.90;8.50;;;2.50;99.90;;;;;;4774433;29;20223;-72
2023/03/13 05:05:36;;;;;;;17.37;8.67;;;2.50;99.90;;;;;;4805600;29;20283;-74
2023/03/13 05:08:04;;;;;;;18.00;8.63;;;2.50;99.90;;;;;;4789336;29;20683;-72
2023/03/13 05:10:31;;;;;;;14.13;8.20;;;2.60;99.90;;;;;;4789426;29;20290;-71
2023/03/13 05:12:58;;;;;;;16.83;8.73;;;2.60;99.90;;;;;;4789354;29;20239;-74
2023/03/13 05:15:25;;;;;;;17.37;9.57;;;2.50;99.90;;;;;;4789176;29;20227;-74
2023/03/13 05:17:51;;;;;;;17.33;8.60;;;2.50;99.90;;;;;;4789329;29;20655;-73
2023/03/13 05:20:20;;;;;;;15.30;8.70;;;2.70;99.90;;;;;;4789597;29;20211;-72
2023/03/13 05:22:47;;;;;;;17.43;9.00;;;2.60;99.90;;;;;;4789230;29;20200;-72
2023/03/13 05:25:14;;;;;;;16.23;8.97;;;2.70;99.90;;;;;;4788333;29;20248;-73
2023/03/13 05:27:41;;;;;;;20.53;8.97;;;2.70;99.90;;;;;;4789260;29;20283;-74
2023/03/13 05:30:08;;;;;;;16.97;9.23;;;2.70;99.90;;;;;;4788984;29;20331;-74
2023/03/13 05:32:35;;;;;;;18.73;9.27;;;2.80;99.90;;;;;;4788925;29;20236;-74
2023/03/13 05:35:02;;;;;;;21.03;9.50;;;2.80;99.90;;;;;;4789007;29;20213;-73
2023/03/13 05:37:29;;;;;;;17.13;9.07;;;2.80;99.90;;;;;;4788876;29;20270;-72
2023/03/13 05:39:56;;;;;;;18.23;9.27;;;2.80;99.90;;;;;;4805177;29;20264;-72
2023/03/13 05:42:25;;;;;;;20.13;9.37;;;2.80;99.90;;;;;;4789225;29;20208;-73
2023/03/13 05:44:53;;;;;;;19.13;9.83;;;2.80;99.90;;;;;;4788917;29;20215;-76
2023/03/13 05:47:20;;;;;;;17.60;9.07;;;2.80;99.90;;;;;;4805219;29;20560;-76
2023/03/13 05:49:47;;;;;;;20.80;10.03;;;2.70;99.90;;;;;;4805576;29;20199;-72
2023/03/13 05:52:14;;;;;;;15.73;8.97;;;2.80;99.90;;;;;;4788784;29;20203;-73
2023/03/13 05:54:41;;;;;;;17.57;9.53;;;2.80;99.90;;;;;;4788949;29;20211;-71
2023/03/13 05:57:07;;;;;;;17.77;9.43;;;2.70;99.90;;;;;;4788585;29;20253;-73
2023/03/13 05:59:34;;;;;;;17.80;9.87;;;2.70;99.90;;;;;;4788916;29;20199;-72
2023/03/13 06:02:01;;;;;;;18.03;10.13;;;2.70;99.90;;;;;;4805350;29;20207;-73
2023/03/13 06:04:28;;;;;;;21.37;10.10;;;2.80;99.90;;;;;;4788714;29;20220;-74
2023/03/13 06:06:55;;;;;;;21.20;10.83;;;2.80;99.90;;;;;;4788846;29;20566;-74
2023/03/13 06:09:22;;;;;;;22.50;10.97;;;2.80;99.90;;;;;;4788595;29;20212;-72
2023/03/13 06:11:49;;;;;;;21.33;11.10;;;2.80;99.90;;;;;;4788768;29;20635;-72
2023/03/13 06:14:15;;;;;;;21.23;11.40;;;2.80;99.90;;;;;;4804890;29;20710;-72
2023/03/13 06:16:42;;;;;;;25.57;11.53;;;2.80;99.90;;;;;;4805222;29;20557;-73
2023/03/13 06:19:10;;;;;;;21.27;11.27;;;2.80;99.90;;;;;;4788850;29;20215;-72
2023/03/13 06:21:38;;;;;;;22.30;11.70;;;2.80;99.90;;;;;;4788584;29;20204;-73
2023/03/13 06:24:05;;;;;;;25.90;12.57;;;2.80;99.90;;;;;;4788398;29;20211;-74
2023/03/13 06:26:32;;;;;;;22.30;12.10;;;2.80;99.90;;;;;;4788553;29;20208;-74
2023/03/13 06:28:59;;;;;;;23.20;11.93;;;2.70;99.90;;;;;;4788512;29;20207;-74
2023/03/13 06:31:26;;;;;;;23.57;12.60;;;2.80;99.90;;;;;;4805110;29;20224;-75
2023/03/13 06:33:54;;;;;;;24.60;11.93;;;2.90;99.90;;;;;;4804604;29;20219;-74
2023/03/13 06:36:22;;;;;;;26.10;12.67;;;2.90;99.90;;;;;;4804888;29;20278;-74
2023/03/13 06:38:50;;;;;;;24.50;12.53;;;3.00;99.90;;;;;;4792117;29;20264;-74
2023/03/13 06:41:17;;;;;;;27.30;12.87;;;3.10;99.90;;;;;;4791715;29;20570;-73
2023/03/13 06:43:43;;;;;;;27.30;12.40;;;3.10;99.90;;;;;;4791727;29;20207;-74
2023/03/13 06:46:19;;;;;;;25.50;12.23;;;3.10;99.90;;;;;;4791519;29;20203;-74
2023/03/13 06:48:47;;;;;;;22.63;12.17;;;3.10;99.90;;;;;;4791463;29;20205;-73
2023/03/13 06:51:16;;;;;;;22.43;12.17;;;3.30;99.90;;;;;;4791181;29;20211;-74
2023/03/13 06:53:43;;;;;;;23.77;11.77;;;3.30;99.90;;;;;;4791635;29;20236;-74
2023/03/13 06:56:10;;;;;;;22.83;11.67;;;3.40;99.90;;;;;;4790939;29;20253;-74
2023/03/13 06:58:37;;;;;;;20.50;11.40;;;3.40;99.90;;;;;;4791541;29;20213;-74
2023/03/13 07:01:11;;;;;;;20.60;11.50;;;3.40;99.90;;;;;;4807693;29;20201;-74
2023/03/13 07:03:42;;;;;;;24.60;11.73;;;3.50;99.90;;;;;;4791349;29;20196;-75
2023/03/13 07:06:11;;;;;;;21.30;11.23;;;3.50;99.90;;;;;;4791167;29;20200;-74
2023/03/13 07:08:38;;;;;;;20.10;11.27;;;3.60;99.90;;;;;;4791166;29;20612;-73
2023/03/13 07:11:08;;;;;;;22.10;11.23;;;3.40;99.90;;;;;;4791398;29;20303;-73
2023/03/13 07:13:36;;;;;;;19.70;11.40;;;3.50;99.90;;;;;;4791087;29;20231;-73
2023/03/13 07:16:09;;;;;;;22.80;11.13;;;3.60;99.90;;;;;;4791110;29;20307;-74
2023/03/13 07:18:38;;;;;;;20.23;11.47;;;3.70;99.90;;;;;;4807253;29;20243;-74
2023/03/13 07:21:05;;;;;;;22.47;11.10;;;3.80;99.90;;;;;;4791238;29;20206;-74
2023/03/13 07:23:35;;;;;;;20.63;11.07;;;3.80;99.90;;;;;;4791202;29;20260;-73
2023/03/13 07:26:06;;;;;;;21.13;11.20;;;3.90;99.90;;;;;;4790933;29;20212;-74
2023/03/13 07:28:33;;;;;;;23.77;11.30;;;3.80;99.90;;;;;;4790912;29;20253;-74
2023/03/13 07:31:04;;;;;;;21.10;11.47;;;3.90;99.90;;;;;;4790756;29;20223;-74
2023/03/13 07:33:32;;;;;;;21.47;11.07;;;4.00;99.90;;;;;;4790802;29;20743;-74
2023/03/13 07:35:59;;;;;;;18.63;10.73;;;4.20;99.90;;;;;;4790580;29;20304;-74
2023/03/13 07:38:26;;;;;;;22.40;11.20;;;4.20;99.90;;;;;;4807030;29;20271;-75
2023/03/13 07:40:58;;;;;;;19.43;10.60;;;4.40;99.90;;;;;;4790689;29;20212;-74
2023/03/13 07:43:26;;;;;;;18.53;10.43;;;4.20;99.90;;;;;;4806965;29;20576;-74
2023/03/13 07:45:55;;;;;;;21.53;10.63;;;4.30;99.90;;;;;;4790653;29;20212;-74
2023/03/13 07:48:24;;;;;;;20.47;11.07;;;4.30;99.90;;;;;;4789871;29;20251;-74
2023/03/13 07:50:54;;;;;;;17.57;10.57;;;4.40;99.90;;;;;;4806731;29;20215;-75
2023/03/13 07:53:21;;;;;;;19.33;10.10;;;4.60;99.90;;;;;;4790433;29;20225;-75
2023/03/13 07:55:52;;;;;;;21.00;10.07;;;4.70;99.90;;;;;;4806540;29;20205;-76
2023/03/13 07:58:35;;;;;;;21.73;10.40;;;4.80;99.90;;;;;;4775584;29;20312;-75
2023/03/13 08:01:16;;;;;;;16.87;10.03;;;4.70;99.90;;;;;;4790550;29;20207;-74
2023/03/13 08:03:44;;;;;;;16.03;9.50;;;4.80;99.90;;;;;;4806688;29;20222;-75
2023/03/13 08:06:16;;;;;;;18.13;10.03;;;4.90;99.90;;;;;;4790149;29;20255;-76
2023/03/13 08:08:43;;;;;;;17.47;9.00;;;5.00;99.90;;;;;;4806685;29;20325;-77
2023/03/13 08:11:14;;;;;;;15.70;9.73;;;5.10;99.90;;;;;;4790027;29;20199;-74
2023/03/13 08:13:41;;;;;;;19.07;10.23;;;5.20;99.90;;;;;;4790161;29;20583;-76
2023/03/13 08:16:14;;;;;;;20.17;9.90;;;5.30;99.90;;;;;;4790123;29;20214;-76
2023/03/13 08:18:43;;;;;;;20.10;9.40;;;5.40;99.90;;;;;;4790117;29;20658;-73
2023/03/13 08:21:13;;;;;;;16.57;10.00;;;5.40;99.90;;;;;;4790004;29;20207;-73
2023/03/13 08:23:41;;;;;;;19.93;9.63;;;5.60;99.90;;;;;;4789954;29;20210;-74
2023/03/13 08:26:15;;;;;;;18.37;9.30;;;5.60;99.90;;;;;;4775223;29;20277;-73
2023/03/13 08:28:44;;;;;;;18.87;9.50;;;5.70;99.90;;;;;;4790044;29;20203;-76
2023/03/13 08:31:13;;;;;;;18.07;9.63;;;5.80;99.90;;;;;;4806223;29;20270;-74
2023/03/13 08:33:42;;;;;;;16.27;9.53;;;5.90;99.90;;;;;;4789632;29;20246;-75
2023/03/13 08:36:16;;;;;;;16.67;9.23;;;6.00;99.90;;;;;;4805858;29;20198;-74
2023/03/13 08:38:44;;;;;;;17.10;9.17;;;5.90;99.90;;;;;;4805987;29;20215;-74
2023/03/13 08:41:17;;;;;;;17.23;9.17;;;6.00;99.90;;;;;;4789626;29;20213;-74
2023/03/13 08:43:46;;;;;;;14.93;8.80;;;6.20;99.90;;;;;;4805528;29;20214;-74
2023/03/13 08:46:23;;;;;;;14.60;8.27;;;6.20;99.90;;;;;;4789353;29;20219;-75
2023/03/13 08:48:51;;;;;;;17.23;9.07;;;6.40;99.90;;;;;;4789262;29;20654;-74
2023/03/13 08:51:20;;;;;;;14.97;8.90;;;6.50;99.90;;;;;;4789384;29;20203;-75
2023/03/13 08:53:48;;;;;;;17.87;9.00;;;6.60;99.90;;;;;;4789526;29;20269;-76
2023/03/13 08:56:19;;;;;;;15.57;8.07;;;6.70;99.90;;;;;;4805442;29;20313;-76
2023/03/13 08:58:51;;;;;;;13.70;7.43;;;6.90;99.90;;;;;;4805723;29;20203;-74
2023/03/13 09:01:19;;;;;;;13.77;7.67;;;7.00;99.90;;;;;;4789560;29;20638;-75
2023/03/13 09:04:51;;;;;;;13.63;7.33;;;7.30;99.90;;;;;;4810861;24;20322;-74
2023/03/13 09:07:18;;;;;;;15.13;7.50;;;7.60;99.90;;;;;;4976109;24;20308;-76
2023/03/13 09:10:02;;;;;;;;;;;;;;;;;;;;;
2023/03/13 09:12:37;;;;;;;14.67;7.00;;;8.30;99.90;;;;;;4857397;24;20609;-76
2023/03/13 09:24:08;;;;;;;11.33;6.20;;;8.90;99.90;;;;;;4858004;24;20334;-75
2023/03/13 09:26:35;;;;;;;11.03;5.90;;;9.10;99.90;;;;;;4805375;29;20673;-75
2023/03/13 09:29:02;;;;;;;12.90;6.17;;;9.30;99.90;;;;;;4805653;29;20218;-75
2023/03/13 09:31:30;;;;;;;10.57;5.97;;;9.40;99.90;;;;;;4789038;29;20285;-79
2023/03/13 09:34:01;;;;;;;9.90;5.40;;;9.40;99.90;;;;;;4805964;29;20227;-76
2023/03/13 09:36:29;;;;;;;10.50;5.60;;;9.40;99.90;;;;;;4789287;29;20260;-80
2023/03/13 09:38:58;;;;;;;9.73;5.67;;;9.60;99.90;;;;;;4805541;29;20208;-79
2023/03/13 09:42:04;;;;;;;10.07;5.27;;;9.70;99.90;;;;;;4789071;29;20221;-76
2023/03/13 09:44:41;;;;;;;11.17;5.10;;;9.70;99.90;;;;;;4700021;30;20572;-76
2023/03/13 09:47:39;;;;;;;12.53;5.37;;;9.80;99.90;;;;;;4714855;30;20257;-77
2023/03/13 09:50:18;;;;;;;9.40;4.80;;;9.80;99.90;;;;;;4714608;30;20306;-74
2023/03/13 09:52:50;;;;;;;11.60;5.20;;;10.10;99.90;;;;;;4714385;30;20250;-77
2023/03/13 09:55:33;;;;;;;10.37;4.70;;;10.30;99.90;;;;;;4728925;24;20678;-78
2023/03/13 09:58:15;;;;;;;10.50;4.60;;;10.50;99.90;;;;;;4807324;29;20199;-74
2023/03/13 10:01:09;;;;;;;12.17;4.53;;;10.50;99.90;;;;;;4807057;29;20646;-77
2023/03/13 10:03:55;;;;;;;9.97;4.37;;;10.50;99.90;;;;;;4820735;29;20219;-77
2023/03/13 10:06:24;;;;;;;10.90;4.50;;;10.50;99.90;;;;;;4807030;29;20267;-77
2023/03/13 10:08:51;;;;;;;8.77;4.17;;;10.50;99.90;;;;;;4823317;29;20286;-77
2023/03/13 10:11:46;;;;;;;10.30;4.10;;;10.40;99.90;;;;;;4807164;29;20244;-77
2023/03/13 10:14:24;;;;;;;13.13;4.30;;;10.50;99.90;;;;;;4810552;29;20322;-77
2023/03/13 10:17:12;;;;;;;10.20;4.27;;;10.50;99.90;;;;;;4827020;29;20598;-78
2023/03/13 10:19:42;;;;;;;9.00;4.00;;;10.60;99.90;;;;;;4826664;29;20198;-77
2023/03/13 10:22:30;;;;;;;12.30;4.50;;;10.30;99.90;;;;;;4810463;29;20213;-77
2023/03/13 10:25:20;;;;;;;8.57;3.90;;;10.40;99.90;;;;;;4826613;29;20203;-77
2023/03/13 10:27:54;;;;;;;11.37;4.20;;;10.40;99.90;;;;;;4826468;29;20291;-79
2023/03/13 10:30:29;;;;;;;11.27;4.43;;;10.40;99.90;;;;;;4826196;29;20574;-77
2023/03/13 10:33:06;;;;;;;11.20;3.80;;;10.40;99.90;;;;;;4826875;29;20252;-78
2023/03/13 10:35:38;;;;;;;10.90;3.60;;;10.40;99.90;;;;;;4810520;29;20202;-78
2023/03/13 10:38:12;;;;;;;8.20;3.70;;;10.40;99.90;;;;;;4826584;29;20237;-76
2023/03/13 10:40:41;;;;;;;9.23;4.10;;;10.30;99.90;;;;;;4810333;29;20650;-77
2023/03/13 10:43:19;;;;;;;10.13;3.73;;;10.30;99.90;;;;;;4826455;29;20674;-74
2023/03/13 10:45:48;;;;;;;11.40;4.40;;;10.40;99.90;;;;;;4826545;29;20297;-78
2023/03/13 10:48:25;;;;;;;10.47;4.43;;;10.40;99.90;;;;;;4826246;29;20220;-77
2023/03/13 10:50:56;;;;;;;14.17;3.93;;;10.40;99.90;;;;;;4809806;29;20210;-77
2023/03/13 10:53:29;;;;;;;8.50;4.20;;;10.40;99.90;;;;;;4826126;29;20294;-78
2023/03/13 10:56:09;;;;;;;10.23;4.50;;;10.40;99.90;;;;;;4809495;29;20239;-77
2023/03/13 10:58:56;;;;;;;9.00;3.77;;;10.40;99.90;;;;;;4825967;29;20539;-77
2023/03/13 11:01:39;;;;;;;10.90;3.90;;;10.40;99.90;;;;;;4809441;29;20610;-78
2023/03/13 11:04:29;;;;;;;11.93;3.80;;;10.30;99.90;;;;;;4825752;29;20531;-78
2023/03/13 11:07:19;;;;;;;7.57;3.87;;;10.40;99.90;;;;;;4825640;29;20206;-77
2023/03/13 11:10:00;;;;;;;10.50;3.80;;;10.40;99.90;;;;;;4809386;29;20207;-78
2023/03/13 11:12:31;;;;;;;9.43;3.63;;;10.40;99.90;;;;;;4825864;29;20201;-75
2023/03/13 11:15:00;;;;;;;13.47;4.00;;;10.50;99.90;;;;;;4825840;29;20238;-76
2023/03/13 11:17:30;;;;;;;9.87;4.00;;;10.50;99.90;;;;;;4825854;29;20207;-77
2023/03/13 11:20:20;;;;;;;10.87;4.30;;;10.60;99.90;;;;;;4809739;29;20235;-77
2023/03/13 11:23:16;;;;;;;9.67;3.67;;;10.70;99.90;;;;;;4809081;29;20211;-78
2023/03/13 11:26:18;;;;;;;10.60;4.20;;;10.80;99.90;;;;;;4826191;29;20211;-78
2023/03/13 11:29:25;;;;;;;9.93;3.87;;;10.90;99.90;;;;;;4810831;29;20230;-75
2023/03/13 11:32:03;;;;;;;10.60;3.70;;;11.20;99.90;;;;;;4809820;29;20215;-75
2023/03/13 11:34:58;;;;;;;11.33;3.83;;;11.20;99.90;;;;;;4825507;29;20250;-75
2023/03/13 11:37:30;;;;;;;9.43;3.80;;;11.40;99.90;;;;;;4818600;24;20239;-76
2023/03/13 11:40:06;;;;;;;9.97;4.10;;;11.80;99.90;;;;;;4807427;29;20210;-77
2023/03/13 11:42:42;;;;;;;11.00;4.33;;;12.00;99.90;;;;;;4791461;29;20302;-77
2023/03/13 11:45:46;;;;;;;9.70;4.20;;;12.20;99.90;;;;;;4791029;29;20306;-73
2023/03/13 11:49:03;;;;;;;11.30;4.03;;;12.60;99.90;;;;;;4764205;29;20218;-75
2023/03/13 11:52:11;;;;;;;11.63;3.87;;;12.70;99.90;;;;;;4790864;29;20273;-75
2023/03/13 11:54:50;;;;;;;9.23;4.03;;;12.70;99.90;;;;;;4790917;29;20239;-75
2023/03/13 11:57:30;;;;;;;11.70;4.50;;;12.80;99.90;;;;;;4791162;29;20260;-75
2023/03/13 12:00:21;;;;;;;9.67;3.80;;;12.70;99.90;;;;;;4807585;29;20212;-77
2023/03/13 12:02:54;;;;;;;11.47;4.00;;;12.60;99.90;;;;;;4807132;29;20215;-75
2023/03/13 12:05:23;;;;;;;9.53;4.57;;;12.50;99.90;;;;;;4807124;29;20211;-75
2023/03/13 12:08:03;;;;;;;9.97;3.90;;;12.50;99.90;;;;;;4790834;29;20601;-74
2023/03/13 12:10:42;;;;;;;11.10;4.70;;;12.60;99.90;;;;;;4790622;29;20207;-77
2023/03/13 12:13:33;;;;;;;8.10;3.30;;;12.40;99.90;;;;;;4790925;29;20215;-76
2023/03/13 12:16:06;;;;;;;9.40;3.80;;;12.50;99.90;;;;;;4790888;29;20239;-74
2023/03/13 12:18:45;;;;;;;11.37;3.43;;;12.30;99.90;;;;;;4790614;29;20227;-75
2023/03/13 12:21:41;;;;;;;7.17;3.57;;;12.30;99.90;;;;;;4789871;29;20204;-75
2023/03/13 12:24:24;;;;;;;10.77;3.60;;;12.20;99.90;;;;;;4790112;29;20215;-75
2023/03/13 12:27:04;;;;;;;9.07;3.43;;;12.10;99.90;;;;;;4790699;29;20214;-77
2023/03/13 12:29:50;;;;;;;8.57;3.83;;;12.20;99.90;;;;;;4790049;29;20207;-76
2023/03/13 12:32:37;;;;;;;9.23;3.40;;;12.20;99.90;;;;;;4788636;30;20596;-75
2023/03/13 12:35:27;;;;;;;9.23;3.83;;;12.10;99.90;;;;;;4771842;30;20256;-75
2023/03/13 12:38:22;;;;;;;10.03;3.40;;;12.10;99.90;;;;;;4793953;24;20254;-77
2023/03/13 12:41:25;;;;;;;10.60;3.13;;;12.10;99.90;;;;;;4775716;29;20208;-78
2023/03/13 12:43:54;;;;;;;11.97;3.20;;;12.10;99.90;;;;;;4730784;29;20729;-77
2023/03/13 12:47:02;;;;;;;12.73;3.20;;;11.90;99.90;;;;;;4790457;29;20640;-77
2023/03/13 12:50:01;;;;;;;9.63;3.23;;;11.80;99.90;;;;;;4790005;29;20207;-77
2023/03/13 12:52:37;;;;;;;12.53;3.40;;;11.80;99.90;;;;;;4789991;29;20254;-78
2023/03/13 12:55:30;;;;;;;12.90;3.30;;;11.60;99.90;;;;;;4789580;29;20693;-77
2023/03/13 12:58:13;;;;;;;9.33;3.27;;;11.50;99.90;;;;;;4806142;29;20286;-75
2023/03/13 13:00:44;;;;;;;9.60;3.40;;;11.30;99.90;;;;;;4789990;29;20215;-74
2023/03/13 13:03:20;;;;;;;11.50;3.20;;;11.30;99.90;;;;;;4774508;29;20212;-76
2023/03/13 13:06:07;;;;;;;12.90;3.70;;;11.20;99.90;;;;;;4789628;29;20311;-77
2023/03/13 13:08:37;;;;;;;11.80;3.07;;;11.10;99.90;;;;;;4789789;29;20229;-76
2023/03/13 13:11:35;;;;;;;11.60;3.23;;;11.10;99.90;;;;;;4805836;29;20199;-75
2023/03/13 13:14:26;;;;;;;12.50;3.33;;;11.10;99.90;;;;;;4775166;29;20203;-78
2023/03/13 13:17:10;;;;;;;12.20;3.90;;;11.10;99.90;;;;;;4714936;30;20609;-76
2023/03/13 13:19:40;;;;;;;11.53;3.70;;;10.90;99.90;;;;;;4700793;30;20203;-76
2023/03/13 13:22:35;;;;;;;12.07;3.80;;;10.90;99.90;;;;;;4715388;30;20565;-75
2023/03/13 13:25:27;;;;;;;11.43;3.67;;;10.80;99.90;;;;;;4715335;30;20574;-75